sensor_id;sensor_type;location;lat;lon;timestamp;temperature;humidity
31695;DHT22;18289;51.330;4.946;2024-01-15T00:00:14;2.60;99.90
31695;DHT22;18289;51.330;4.946;2024-01-15T00:02:40;2.60;99.90
31695;DHT22;18289;51.330;4.946;2024-01-15T00:05:06;2.60;99.90
31695;DHT22;18289;51.330;4.946;2024-01-15T00:07:31;2.60;99.90
31695;DHT22;18289;51.330;4.946;2024-01-15T00:09:57;2.60;99.90
31695;DHT22;18289;51.330;4.946;2024-01-15T00:12:23;2.60;99.90
31695;DHT22;18289;51.330;4.946;2024-01-15T00:14:48;2.60;99.90
31695;DHT22;18289;51.330;4.946;2024-01-15T00:17:14;2.60;99.90
31695;DHT22;18289;51.330;4.946;2024-01-15T00:19:40;2.60;99.90
31695;DHT22;18289;51.330;4.946;2024-01-15T00:22:05;2.60;99.90
31695;DHT22;18289;51.330;4.946;2024-01-15T00:24:31;2.60;99.90
31695;DHT22;18289;51.330;4.946;2024-01-15T00:26:57;2.60;99.90
31695;DHT22;18289;51.330;4.946;2024-01-15T00:29:22;2.60;99.90
31695;DHT22;18289;51.330;4.946;2024-01-15T00:31:48;2.60;99.90
31695;DHT22;18289;51.330;4.946;2024-01-15T00:34:14;2.50;99.90
31695;DHT22;18289;51.330;4.946;2024-01-15T00:36:40;2.60;99.90
31695;DHT22;18289;51.330;4.946;2024-01-15T00:39:05;2.60;99.90
31695;DHT22;18289;51.330;4.946;2024-01-15T00:41:31;2.60;99.90
31695;DHT22;18289;51.330;4.946;2024-01-15T00:43:57;2.60;99.90
31695;DHT22;18289;51.330;4.946;2024-01-15T00:46:23;2.60;99.90
31695;DHT22;18289;51.330;4.946;2024-01-15T00:48:48;2.60;99.90
31695;DHT22;18289;51.330;4.946;2024-01-15T00:51:14;2.60;99.90
31695;DHT22;18289;51.330;4.946;2024-01-15T00:53:40;2.50;99.90
31695;DHT22;18289;51.330;4.946;2024-01-15T00:56:05;2.60;99.90
31695;DHT22;18289;51.330;4.946;2024-01-15T00:58:31;2.50;99.90
31695;DHT22;18289;51.330;4.946;2024-01-15T01:00:57;2.50;99.90
31695;DHT22;18289;51.330;4.946;2024-01-15T01:03:23;2.50;99.90
31695;DHT22;18289;51.330;4.946;2024-01-15T01:05:49;2.40;99.90
31695;DHT22;18289;51.330;4.946;2024-01-15T01:08:15;2.40;99.90
31695;DHT22;18289;51.330;4.946;2024-01-15T01:10:41;2.50;99.90
31695;DHT22;18289;51.330;4.946;2024-01-15T01:13:10;2.50;99.90
31695;DHT22;18289;51.330;4.946;2024-01-15T01:15:36;2.50;99.90
31695;DHT22;18289;51.330;4.946;2024-01-15T01:18:02;2.50;99.90
31695;DHT22;18289;51.330;4.946;2024-01-15T01:20:28;2.40;99.90
31695;DHT22;18289;51.330;4.946;2024-01-15T01:22:54;2.30;99.90
31695;DHT22;18289;51.330;4.946;2024-01-15T01:25:20;2.30;99.90
31695;DHT22;18289;51.330;4.946;2024-01-15T01:27:45;2.30;99.90
31695;DHT22;18289;51.330;4.946;2024-01-15T01:30:11;2.30;99.90
31695;DHT22;18289;51.330;4.946;2024-01-15T01:32:37;2.20;99.90
31695;DHT22;18289;51.330;4.946;2024-01-15T01:35:03;2.30;99.90
31695;DHT22;18289;51.330;4.946;2024-01-15T01:37:29;2.30;99.90
31695;DHT22;18289;51.330;4.946;2024-01-15T01:39:55;2.20;99.90
31695;DHT22;18289;51.330;4.946;2024-01-15T01:42:20;2.20;99.90
31695;DHT22;18289;51.330;4.946;2024-01-15T01:44:46;2.20;99.90
31695;DHT22;18289;51.330;4.946;2024-01-15T01:47:12;2.20;99.90
31695;DHT22;18289;51.330;4.946;2024-01-15T01:49:38;2.20;99.90
31695;DHT22;18289;51.330;4.946;2024-01-15T01:52:05;2.10;99.90
31695;DHT22;18289;51.330;4.946;2024-01-15T01:54:35;2.10;99.90
31695;DHT22;18289;51.330;4.946;2024-01-15T01:57:03;2.10;99.90
31695;DHT22;18289;51.330;4.946;2024-01-15T01:59:30;2.10;99.90
31695;DHT22;18289;51.330;4.946;2024-01-15T02:01:57;2.20;99.90
31695;DHT22;18289;51.330;4.946;2024-01-15T02:04:24;2.20;99.90
31695;DHT22;18289;51.330;4.946;2024-01-15T02:06:50;2.20;99.90
31695;DHT22;18289;51.330;4.946;2024-01-15T02:09:20;2.10;99.90
31695;DHT22;18289;51.330;4.946;2024-01-15T02:11:46;2.20;99.90
31695;DHT22;18289;51.330;4.946;2024-01-15T02:14:12;2.20;99.90
31695;DHT22;18289;51.330;4.946;2024-01-15T02:16:38;2.30;99.90
31695;DHT22;18289;51.330;4.946;2024-01-15T02:19:03;2.20;99.90
31695;DHT22;18289;51.330;4.946;2024-01-15T02:21:29;2.20;99.90
31695;DHT22;18289;51.330;4.946;2024-01-15T02:23:56;2.20;99.90
31695;DHT22;18289;51.330;4.946;2024-01-15T02:26:22;2.20;99.90
31695;DHT22;18289;51.330;4.946;2024-01-15T02:28:48;2.20;99.90
31695;DHT22;18289;51.330;4.946;2024-01-15T02:31:15;2.20;99.90
31695;DHT22;18289;51.330;4.946;2024-01-15T02:33:42;2.20;99.90
31695;DHT22;18289;51.330;4.946;2024-01-15T02:36:09;2.20;99.90
31695;DHT22;18289;51.330;4.946;2024-01-15T02:38:34;2.30;99.90
31695;DHT22;18289;51.330;4.946;2024-01-15T02:41:00;2.40;99.90
31695;DHT22;18289;51.330;4.946;2024-01-15T02:43:26;2.30;99.90
31695;DHT22;18289;51.330;4.946;2024-01-15T02:45:51;2.30;99.90
31695;DHT22;18289;51.330;4.946;2024-01-15T02:48:17;2.20;99.90
31695;DHT22;18289;51.330;4.946;2024-01-15T02:50:43;2.20;99.90
31695;DHT22;18289;51.330;4.946;2024-01-15T02:53:09;2.20;99.90
31695;DHT22;18289;51.330;4.946;2024-01-15T02:55:34;2.10;99.90
31695;DHT22;18289;51.330;4.946;2024-01-15T02:58:00;2.10;99.90
31695;DHT22;18289;51.330;4.946;2024-01-15T03:00:26;2.10;99.90
31695;DHT22;18289;51.330;4.946;2024-01-15T03:02:51;2.20;99.90
31695;DHT22;18289;51.330;4.946;2024-01-15T03:05:17;2.20;99.90
31695;DHT22;18289;51.330;4.946;2024-01-15T03:07:43;2.30;99.90
31695;DHT22;18289;51.330;4.946;2024-01-15T03:10:09;2.30;99.90
31695;DHT22;18289;51.330;4.946;2024-01-15T03:12:35;2.30;99.90
31695;DHT22;18289;51.330;4.946;2024-01-15T03:15:01;2.20;99.90
31695;DHT22;18289;51.330;4.946;2024-01-15T03:17:27;2.20;99.90
31695;DHT22;18289;51.330;4.946;2024-01-15T03:19:52;2.20;99.90
31695;DHT22;18289;51.330;4.946;2024-01-15T03:22:18;2.30;99.90
31695;DHT22;18289;51.330;4.946;2024-01-15T03:24:44;2.30;99.90
31695;DHT22;18289;51.330;4.946;2024-01-15T03:27:10;2.20;99.90
31695;DHT22;18289;51.330;4.946;2024-01-15T03:29:35;2.30;99.90
31695;DHT22;18289;51.330;4.946;2024-01-15T03:32:01;2.30;99.90
31695;DHT22;18289;51.330;4.946;2024-01-15T03:34:27;2.30;99.90
31695;DHT22;18289;51.330;4.946;2024-01-15T03:36:52;2.20;99.90
31695;DHT22;18289;51.330;4.946;2024-01-15T03:39:18;2.20;99.90
31695;DHT22;18289;51.330;4.946;2024-01-15T03:41:44;2.10;99.90
31695;DHT22;18289;51.330;4.946;2024-01-15T03:44:10;2.10;99.90
31695;DHT22;18289;51.330;4.946;2024-01-15T03:46:36;2.20;99.90
31695;DHT22;18289;51.330;4.946;2024-01-15T03:49:01;2.10;99.90
31695;DHT22;18289;51.330;4.946;2024-01-15T03:51:27;2.20;99.90
31695;DHT22;18289;51.330;4.946;2024-01-15T03:53:53;2.20;99.90
31695;DHT22;18289;51.330;4.946;2024-01-15T03:56:19;2.30;99.90
31695;DHT22;18289;51.330;4.946;2024-01-15T03:58:44;2.20;99.90
31695;DHT22;18289;51.330;4.946;2024-01-15T04:01:10;2.20;99.90
31695;DHT22;18289;51.330;4.946;2024-01-15T04:03:36;2.10;99.90
31695;DHT22;18289;51.330;4.946;2024-01-15T04:06:03;2.10;99.90
31695;DHT22;18289;51.330;4.946;2024-01-15T04:08:29;2.10;99.90
31695;DHT22;18289;51.330;4.946;2024-01-15T04:10:54;2.00;99.90
31695;DHT22;18289;51.330;4.946;2024-01-15T04:13:20;2.10;99.90
31695;DHT22;18289;51.330;4.946;2024-01-15T04:15:46;2.00;99.90
31695;DHT22;18289;51.330;4.946;2024-01-15T04:18:12;2.00;99.90
31695;DHT22;18289;51.330;4.946;2024-01-15T04:20:37;2.10;99.90
31695;DHT22;18289;51.330;4.946;2024-01-15T04:23:04;2.10;99.90
31695;DHT22;18289;51.330;4.946;2024-01-15T04:25:30;2.10;99.90
31695;DHT22;18289;51.330;4.946;2024-01-15T04:27:56;2.00;99.90
31695;DHT22;18289;51.330;4.946;2024-01-15T04:30:21;2.00;99.90
31695;DHT22;18289;51.330;4.946;2024-01-15T04:32:47;1.90;99.90
31695;DHT22;18289;51.330;4.946;2024-01-15T04:35:13;1.90;99.90
31695;DHT22;18289;51.330;4.946;2024-01-15T04:40:07;1.90;99.90
31695;DHT22;18289;51.330;4.946;2024-01-15T04:42:33;1.90;99.90
31695;DHT22;18289;51.330;4.946;2024-01-15T04:47:26;1.80;99.90
31695;DHT22;18289;51.330;4.946;2024-01-15T04:49:52;1.80;99.90
31695;DHT22;18289;51.330;4.946;2024-01-15T04:52:18;1.90;99.90
31695;DHT22;18289;51.330;4.946;2024-01-15T04:54:44;2.00;99.90
31695;DHT22;18289;51.330;4.946;2024-01-15T04:57:09;2.00;99.90
31695;DHT22;18289;51.330;4.946;2024-01-15T04:59:35;1.90;99.90
31695;DHT22;18289;51.330;4.946;2024-01-15T05:02:01;2.10;99.90
31695;DHT22;18289;51.330;4.946;2024-01-15T05:04:26;1.90;99.90
31695;DHT22;18289;51.330;4.946;2024-01-15T05:06:53;1.80;99.90
31695;DHT22;18289;51.330;4.946;2024-01-15T05:09:19;1.90;99.90
31695;DHT22;18289;51.330;4.946;2024-01-15T05:11:44;1.90;99.90
31695;DHT22;18289;51.330;4.946;2024-01-15T05:14:10;1.90;99.90
31695;DHT22;18289;51.330;4.946;2024-01-15T05:16:38;2.10;99.90
31695;DHT22;18289;51.330;4.946;2024-01-15T05:19:04;2.00;99.90
31695;DHT22;18289;51.330;4.946;2024-01-15T05:21:30;2.00;99.90
31695;DHT22;18289;51.330;4.946;2024-01-15T05:23:56;2.00;99.90
31695;DHT22;18289;51.330;4.946;2024-01-15T05:26:21;2.00;99.90
31695;DHT22;18289;51.330;4.946;2024-01-15T05:28:47;2.00;99.90
31695;DHT22;18289;51.330;4.946;2024-01-15T05:31:13;2.10;99.90
31695;DHT22;18289;51.330;4.946;2024-01-15T05:33:38;2.20;99.90
31695;DHT22;18289;51.330;4.946;2024-01-15T05:36:04;2.20;99.90
31695;DHT22;18289;51.330;4.946;2024-01-15T05:38:30;2.20;99.90
31695;DHT22;18289;51.330;4.946;2024-01-15T05:40:56;2.30;99.90
31695;DHT22;18289;51.330;4.946;2024-01-15T05:45:52;1.90;99.90
31695;DHT22;18289;51.330;4.946;2024-01-15T05:48:18;1.90;99.90
31695;DHT22;18289;51.330;4.946;2024-01-15T05:50:44;1.90;99.90
31695;DHT22;18289;51.330;4.946;2024-01-15T05:53:09;1.80;99.90
31695;DHT22;18289;51.330;4.946;2024-01-15T05:55:36;1.80;99.90
31695;DHT22;18289;51.330;4.946;2024-01-15T05:58:02;1.80;99.90
31695;DHT22;18289;51.330;4.946;2024-01-15T06:00:28;1.70;99.90
31695;DHT22;18289;51.330;4.946;2024-01-15T06:02:54;1.60;99.90
31695;DHT22;18289;51.330;4.946;2024-01-15T06:05:20;1.60;99.90
31695;DHT22;18289;51.330;4.946;2024-01-15T06:07:46;1.50;99.90
31695;DHT22;18289;51.330;4.946;2024-01-15T06:10:11;1.50;99.90
31695;DHT22;18289;51.330;4.946;2024-01-15T06:12:37;1.50;99.90
31695;DHT22;18289;51.330;4.946;2024-01-15T06:15:03;1.50;99.90
31695;DHT22;18289;51.330;4.946;2024-01-15T06:17:29;1.60;99.90
31695;DHT22;18289;51.330;4.946;2024-01-15T06:19:54;1.60;99.90
31695;DHT22;18289;51.330;4.946;2024-01-15T06:22:20;1.50;99.90
31695;DHT22;18289;51.330;4.946;2024-01-15T06:24:46;1.50;99.90
31695;DHT22;18289;51.330;4.946;2024-01-15T06:27:11;1.50;99.90
31695;DHT22;18289;51.330;4.946;2024-01-15T06:29:38;1.50;99.90
31695;DHT22;18289;51.330;4.946;2024-01-15T06:32:04;1.50;99.90
31695;DHT22;18289;51.330;4.946;2024-01-15T06:34:30;1.40;99.90
31695;DHT22;18289;51.330;4.946;2024-01-15T06:36:56;1.40;99.90
31695;DHT22;18289;51.330;4.946;2024-01-15T06:39:21;1.40;99.90
31695;DHT22;18289;51.330;4.946;2024-01-15T06:41:47;1.40;99.90
31695;DHT22;18289;51.330;4.946;2024-01-15T06:44:13;1.40;99.90
31695;DHT22;18289;51.330;4.946;2024-01-15T06:46:42;1.50;99.90
31695;DHT22;18289;51.330;4.946;2024-01-15T06:49:09;1.50;99.90
31695;DHT22;18289;51.330;4.946;2024-01-15T06:51:35;1.50;99.90
31695;DHT22;18289;51.330;4.946;2024-01-15T06:54:01;1.50;99.90
31695;DHT22;18289;51.330;4.946;2024-01-15T06:56:27;1.50;99.90
31695;DHT22;18289;51.330;4.946;2024-01-15T06:58:53;1.50;99.90
31695;DHT22;18289;51.330;4.946;2024-01-15T07:01:19;1.70;99.90
31695;DHT22;18289;51.330;4.946;2024-01-15T07:03:44;1.50;99.90
31695;DHT22;18289;51.330;4.946;2024-01-15T07:06:11;1.50;99.90
31695;DHT22;18289;51.330;4.946;2024-01-15T07:08:37;1.60;99.90
31695;DHT22;18289;51.330;4.946;2024-01-15T07:11:07;1.50;99.90
31695;DHT22;18289;51.330;4.946;2024-01-15T07:13:33;1.50;99.90
31695;DHT22;18289;51.330;4.946;2024-01-15T07:15:58;1.60;99.90
31695;DHT22;18289;51.330;4.946;2024-01-15T07:18:24;1.60;99.90
31695;DHT22;18289;51.330;4.946;2024-01-15T07:20:51;1.60;99.90
31695;DHT22;18289;51.330;4.946;2024-01-15T07:23:16;1.60;99.90
31695;DHT22;18289;51.330;4.946;2024-01-15T07:25:43;1.60;99.90
31695;DHT22;18289;51.330;4.946;2024-01-15T07:28:08;1.60;99.90
31695;DHT22;18289;51.330;4.946;2024-01-15T07:30:34;1.60;99.90
31695;DHT22;18289;51.330;4.946;2024-01-15T07:33:00;1.60;99.90
31695;DHT22;18289;51.330;4.946;2024-01-15T07:35:26;1.60;99.90
31695;DHT22;18289;51.330;4.946;2024-01-15T07:37:52;1.60;99.90
31695;DHT22;18289;51.330;4.946;2024-01-15T07:40:18;1.60;99.90
31695;DHT22;18289;51.330;4.946;2024-01-15T07:42:43;1.60;99.90
31695;DHT22;18289;51.330;4.946;2024-01-15T07:45:10;1.60;99.90
31695;DHT22;18289;51.330;4.946;2024-01-15T07:47:36;1.70;99.90
31695;DHT22;18289;51.330;4.946;2024-01-15T07:50:03;1.70;99.90
31695;DHT22;18289;51.330;4.946;2024-01-15T07:52:30;1.80;99.90
31695;DHT22;18289;51.330;4.946;2024-01-15T07:54:56;1.70;99.90
31695;DHT22;18289;51.330;4.946;2024-01-15T07:57:22;1.70;99.90
31695;DHT22;18289;51.330;4.946;2024-01-15T07:59:48;1.60;99.90
31695;DHT22;18289;51.330;4.946;2024-01-15T08:02:14;1.70;99.90
31695;DHT22;18289;51.330;4.946;2024-01-15T08:04:39;1.60;99.90
31695;DHT22;18289;51.330;4.946;2024-01-15T08:07:05;1.70;99.90
31695;DHT22;18289;51.330;4.946;2024-01-15T08:09:33;1.70;99.90
31695;DHT22;18289;51.330;4.946;2024-01-15T08:11:59;1.70;99.90
31695;DHT22;18289;51.330;4.946;2024-01-15T08:14:25;1.70;99.90
31695;DHT22;18289;51.330;4.946;2024-01-15T08:16:50;1.70;99.90
31695;DHT22;18289;51.330;4.946;2024-01-15T08:19:16;1.70;99.90
31695;DHT22;18289;51.330;4.946;2024-01-15T08:21:42;1.70;99.90
31695;DHT22;18289;51.330;4.946;2024-01-15T08:24:08;1.70;99.90
31695;DHT22;18289;51.330;4.946;2024-01-15T08:26:34;1.70;99.90
31695;DHT22;18289;51.330;4.946;2024-01-15T08:29:00;1.70;99.90
31695;DHT22;18289;51.330;4.946;2024-01-15T08:31:26;1.70;99.90
31695;DHT22;18289;51.330;4.946;2024-01-15T08:33:52;1.80;99.90
31695;DHT22;18289;51.330;4.946;2024-01-15T08:36:18;1.70;99.90
31695;DHT22;18289;51.330;4.946;2024-01-15T08:38:44;1.80;99.90
31695;DHT22;18289;51.330;4.946;2024-01-15T08:41:10;1.80;99.90
31695;DHT22;18289;51.330;4.946;2024-01-15T08:43:36;1.90;99.90
31695;DHT22;18289;51.330;4.946;2024-01-15T08:46:03;1.80;99.90
31695;DHT22;18289;51.330;4.946;2024-01-15T08:48:29;1.90;99.90
31695;DHT22;18289;51.330;4.946;2024-01-15T08:50:55;1.90;99.90
31695;DHT22;18289;51.330;4.946;2024-01-15T08:53:21;1.90;99.90
31695;DHT22;18289;51.330;4.946;2024-01-15T08:55:47;2.00;99.90
31695;DHT22;18289;51.330;4.946;2024-01-15T08:58:13;2.00;99.90
31695;DHT22;18289;51.330;4.946;2024-01-15T09:00:39;2.10;99.90
31695;DHT22;18289;51.330;4.946;2024-01-15T09:03:05;2.20;99.90
31695;DHT22;18289;51.330;4.946;2024-01-15T09:05:31;2.20;99.90
31695;DHT22;18289;51.330;4.946;2024-01-15T09:07:56;2.20;99.90
31695;DHT22;18289;51.330;4.946;2024-01-15T09:10:22;2.20;99.90
31695;DHT22;18289;51.330;4.946;2024-01-15T09:12:48;2.30;99.90
31695;DHT22;18289;51.330;4.946;2024-01-15T09:15:14;2.20;99.90
31695;DHT22;18289;51.330;4.946;2024-01-15T09:17:40;2.20;99.90
31695;DHT22;18289;51.330;4.946;2024-01-15T09:20:07;2.30;99.90
31695;DHT22;18289;51.330;4.946;2024-01-15T09:22:33;2.30;99.90
31695;DHT22;18289;51.330;4.946;2024-01-15T09:24:59;2.40;99.90
31695;DHT22;18289;51.330;4.946;2024-01-15T09:27:25;2.30;99.90
31695;DHT22;18289;51.330;4.946;2024-01-15T09:29:54;2.40;99.90
31695;DHT22;18289;51.330;4.946;2024-01-15T09:32:19;2.40;99.90
31695;DHT22;18289;51.330;4.946;2024-01-15T09:34:48;2.50;99.90
31695;DHT22;18289;51.330;4.946;2024-01-15T09:37:14;2.60;99.90
31695;DHT22;18289;51.330;4.946;2024-01-15T09:39:40;3.10;99.90
31695;DHT22;18289;51.330;4.946;2024-01-15T09:42:07;3.10;99.90
31695;DHT22;18289;51.330;4.946;2024-01-15T09:44:33;3.10;99.90
31695;DHT22;18289;51.330;4.946;2024-01-15T09:46:59;3.20;99.90
31695;DHT22;18289;51.330;4.946;2024-01-15T09:49:25;3.20;99.90
31695;DHT22;18289;51.330;4.946;2024-01-15T09:51:51;3.30;99.90
31695;DHT22;18289;51.330;4.946;2024-01-15T09:54:17;3.80;99.90
31695;DHT22;18289;51.330;4.946;2024-01-15T09:56:47;3.80;99.90
31695;DHT22;18289;51.330;4.946;2024-01-15T09:59:19;3.60;99.90
31695;DHT22;18289;51.330;4.946;2024-01-15T10:01:45;3.40;99.90
31695;DHT22;18289;51.330;4.946;2024-01-15T10:04:13;3.30;99.90
31695;DHT22;18289;51.330;4.946;2024-01-15T10:06:41;3.30;99.90
31695;DHT22;18289;51.330;4.946;2024-01-15T10:09:09;3.30;99.90
31695;DHT22;18289;51.330;4.946;2024-01-15T10:11:35;3.50;99.90
31695;DHT22;18289;51.330;4.946;2024-01-15T10:14:01;3.50;99.90
31695;DHT22;18289;51.330;4.946;2024-01-15T10:16:27;3.30;99.90
31695;DHT22;18289;51.330;4.946;2024-01-15T10:18:52;3.20;99.90
31695;DHT22;18289;51.330;4.946;2024-01-15T10:21:18;3.00;99.90
31695;DHT22;18289;51.330;4.946;2024-01-15T10:23:44;2.80;99.90
31695;DHT22;18289;51.330;4.946;2024-01-15T10:26:10;2.60;99.90
31695;DHT22;18289;51.330;4.946;2024-01-15T10:28:37;2.40;99.90
31695;DHT22;18289;51.330;4.946;2024-01-15T10:31:03;2.40;99.90
31695;DHT22;18289;51.330;4.946;2024-01-15T10:33:30;2.30;99.90
31695;DHT22;18289;51.330;4.946;2024-01-15T10:35:57;2.20;99.90
31695;DHT22;18289;51.330;4.946;2024-01-15T10:38:23;2.30;99.90
31695;DHT22;18289;51.330;4.946;2024-01-15T10:40:53;2.30;99.90
31695;DHT22;18289;51.330;4.946;2024-01-15T10:43:19;2.60;99.90
31695;DHT22;18289;51.330;4.946;2024-01-15T10:45:46;2.60;99.90
31695;DHT22;18289;51.330;4.946;2024-01-15T10:48:12;2.70;99.90
31695;DHT22;18289;51.330;4.946;2024-01-15T10:50:38;2.50;99.90
31695;DHT22;18289;51.330;4.946;2024-01-15T10:53:05;2.40;99.90
31695;DHT22;18289;51.330;4.946;2024-01-15T10:55:31;2.10;99.90
31695;DHT22;18289;51.330;4.946;2024-01-15T10:57:59;1.90;99.90
31695;DHT22;18289;51.330;4.946;2024-01-15T11:00:25;1.80;99.90
31695;DHT22;18289;51.330;4.946;2024-01-15T11:02:51;2.00;99.90
31695;DHT22;18289;51.330;4.946;2024-01-15T11:05:21;1.80;99.90
31695;DHT22;18289;51.330;4.946;2024-01-15T11:07:48;1.90;99.90
31695;DHT22;18289;51.330;4.946;2024-01-15T11:10:37;1.80;99.90
31695;DHT22;18289;51.330;4.946;2024-01-15T11:13:03;1.80;99.90
31695;DHT22;18289;51.330;4.946;2024-01-15T11:18:01;1.50;99.90
31695;DHT22;18289;51.330;4.946;2024-01-15T11:20:29;1.50;99.90
31695;DHT22;18289;51.330;4.946;2024-01-15T11:22:56;1.60;99.90
31695;DHT22;18289;51.330;4.946;2024-01-15T11:25:35;1.60;99.90
31695;DHT22;18289;51.330;4.946;2024-01-15T11:28:03;1.70;99.90
31695;DHT22;18289;51.330;4.946;2024-01-15T11:30:29;1.70;99.90
31695;DHT22;18289;51.330;4.946;2024-01-15T11:32:55;1.70;99.90
31695;DHT22;18289;51.330;4.946;2024-01-15T11:35:21;1.70;99.90
31695;DHT22;18289;51.330;4.946;2024-01-15T11:40:36;2.10;99.90
31695;DHT22;18289;51.330;4.946;2024-01-15T11:43:04;2.20;99.90
31695;DHT22;18289;51.330;4.946;2024-01-15T11:45:30;2.50;99.90
31695;DHT22;18289;51.330;4.946;2024-01-15T11:50:29;2.60;99.90
31695;DHT22;18289;51.330;4.946;2024-01-15T11:53:03;2.80;99.90
31695;DHT22;18289;51.330;4.946;2024-01-15T11:55:39;3.10;99.90
31695;DHT22;18289;51.330;4.946;2024-01-15T11:58:10;2.90;99.90
31695;DHT22;18289;51.330;4.946;2024-01-15T12:00:48;2.90;99.90
31695;DHT22;18289;51.330;4.946;2024-01-15T12:03:16;2.90;99.90
31695;DHT22;18289;51.330;4.946;2024-01-15T12:05:42;2.70;99.90
31695;DHT22;18289;51.330;4.946;2024-01-15T12:08:08;2.50;99.90
31695;DHT22;18289;51.330;4.946;2024-01-15T12:10:37;2.20;99.90
31695;DHT22;18289;51.330;4.946;2024-01-15T12:13:11;2.00;99.90
31695;DHT22;18289;51.330;4.946;2024-01-15T12:15:37;1.80;99.90
31695;DHT22;18289;51.330;4.946;2024-01-15T12:18:08;1.80;99.90
31695;DHT22;18289;51.330;4.946;2024-01-15T12:20:34;1.60;99.90
31695;DHT22;18289;51.330;4.946;2024-01-15T12:23:00;1.50;99.90
31695;DHT22;18289;51.330;4.946;2024-01-15T12:25:26;1.50;99.90
31695;DHT22;18289;51.330;4.946;2024-01-15T12:27:53;1.40;99.90
31695;DHT22;18289;51.330;4.946;2024-01-15T12:30:19;1.40;99.90
31695;DHT22;18289;51.330;4.946;2024-01-15T12:32:45;1.50;99.90
31695;DHT22;18289;51.330;4.946;2024-01-15T12:35:14;1.70;99.90
31695;DHT22;18289;51.330;4.946;2024-01-15T12:37:43;1.80;99.90
31695;DHT22;18289;51.330;4.946;2024-01-15T12:40:12;2.20;99.90
31695;DHT22;18289;51.330;4.946;2024-01-15T12:42:41;2.60;99.90
31695;DHT22;18289;51.330;4.946;2024-01-15T12:45:07;3.00;99.90
31695;DHT22;18289;51.330;4.946;2024-01-15T12:47:33;3.30;99.90
31695;DHT22;18289;51.330;4.946;2024-01-15T12:49:59;3.40;99.90
31695;DHT22;18289;51.330;4.946;2024-01-15T12:52:29;3.30;99.90
31695;DHT22;18289;51.330;4.946;2024-01-15T12:54:55;3.30;99.90
31695;DHT22;18289;51.330;4.946;2024-01-15T12:57:21;3.20;99.90
31695;DHT22;18289;51.330;4.946;2024-01-15T12:59:47;3.10;99.90
31695;DHT22;18289;51.330;4.946;2024-01-15T13:02:13;2.80;99.90
31695;DHT22;18289;51.330;4.946;2024-01-15T13:04:39;2.80;99.90
31695;DHT22;18289;51.330;4.946;2024-01-15T13:07:08;2.70;99.90
31695;DHT22;18289;51.330;4.946;2024-01-15T13:09:34;3.00;99.90
31695;DHT22;18289;51.330;4.946;2024-01-15T13:12:04;3.10;99.90
31695;DHT22;18289;51.330;4.946;2024-01-15T13:14:31;3.30;99.90
31695;DHT22;18289;51.330;4.946;2024-01-15T13:16:58;3.60;99.90
31695;DHT22;18289;51.330;4.946;2024-01-15T13:19:24;3.50;99.90
31695;DHT22;18289;51.330;4.946;2024-01-15T13:21:50;3.40;99.90
31695;DHT22;18289;51.330;4.946;2024-01-15T13:24:17;3.00;99.90
31695;DHT22;18289;51.330;4.946;2024-01-15T13:26:43;2.90;99.90
31695;DHT22;18289;51.330;4.946;2024-01-15T13:29:09;2.80;99.90
31695;DHT22;18289;51.330;4.946;2024-01-15T13:31:34;2.70;99.90
31695;DHT22;18289;51.330;4.946;2024-01-15T13:34:00;2.70;99.90
31695;DHT22;18289;51.330;4.946;2024-01-15T13:36:27;2.70;99.90
31695;DHT22;18289;51.330;4.946;2024-01-15T13:38:53;2.70;99.90
31695;DHT22;18289;51.330;4.946;2024-01-15T13:41:22;2.90;99.90
31695;DHT22;18289;51.330;4.946;2024-01-15T13:43:53;2.90;99.90
31695;DHT22;18289;51.330;4.946;2024-01-15T13:46:23;2.80;99.90
31695;DHT22;18289;51.330;4.946;2024-01-15T13:48:49;2.80;99.90
31695;DHT22;18289;51.330;4.946;2024-01-15T13:51:14;2.70;99.90
31695;DHT22;18289;51.330;4.946;2024-01-15T13:53:40;2.80;99.90
31695;DHT22;18289;51.330;4.946;2024-01-15T13:56:07;2.90;99.90
31695;DHT22;18289;51.330;4.946;2024-01-15T13:58:34;2.90;99.90
31695;DHT22;18289;51.330;4.946;2024-01-15T14:01:00;2.70;99.90
31695;DHT22;18289;51.330;4.946;2024-01-15T14:03:26;2.70;99.90
31695;DHT22;18289;51.330;4.946;2024-01-15T14:05:52;2.90;99.90
31695;DHT22;18289;51.330;4.946;2024-01-15T14:08:18;3.20;99.90
31695;DHT22;18289;51.330;4.946;2024-01-15T14:10:44;3.10;99.90
31695;DHT22;18289;51.330;4.946;2024-01-15T14:13:10;2.90;99.90
31695;DHT22;18289;51.330;4.946;2024-01-15T14:15:36;2.80;99.90
31695;DHT22;18289;51.330;4.946;2024-01-15T14:18:02;2.80;99.90
31695;DHT22;18289;51.330;4.946;2024-01-15T14:20:28;2.60;99.90
31695;DHT22;18289;51.330;4.946;2024-01-15T14:22:54;2.60;99.90
31695;DHT22;18289;51.330;4.946;2024-01-15T14:25:22;2.50;99.90
31695;DHT22;18289;51.330;4.946;2024-01-15T14:27:49;2.40;99.90
31695;DHT22;18289;51.330;4.946;2024-01-15T14:30:16;2.40;99.90
31695;DHT22;18289;51.330;4.946;2024-01-15T14:32:43;2.30;99.90
31695;DHT22;18289;51.330;4.946;2024-01-15T14:35:09;2.30;99.90
31695;DHT22;18289;51.330;4.946;2024-01-15T14:37:38;2.30;99.90
31695;DHT22;18289;51.330;4.946;2024-01-15T14:40:07;2.20;99.90
31695;DHT22;18289;51.330;4.946;2024-01-15T14:42:34;2.20;99.90
31695;DHT22;18289;51.330;4.946;2024-01-15T14:45:00;2.10;99.90
31695;DHT22;18289;51.330;4.946;2024-01-15T14:47:28;2.10;99.90
31695;DHT22;18289;51.330;4.946;2024-01-15T14:49:54;2.00;99.90
31695;DHT22;18289;51.330;4.946;2024-01-15T14:52:22;2.10;99.90
31695;DHT22;18289;51.330;4.946;2024-01-15T14:54:49;2.10;99.90
31695;DHT22;18289;51.330;4.946;2024-01-15T14:57:15;2.10;99.90
31695;DHT22;18289;51.330;4.946;2024-01-15T14:59:40;2.10;99.90
31695;DHT22;18289;51.330;4.946;2024-01-15T15:02:06;2.10;99.90
31695;DHT22;18289;51.330;4.946;2024-01-15T15:04:32;2.10;99.90
31695;DHT22;18289;51.330;4.946;2024-01-15T15:06:58;2.10;99.90
31695;DHT22;18289;51.330;4.946;2024-01-15T15:09:24;2.20;99.90
31695;DHT22;18289;51.330;4.946;2024-01-15T15:11:50;2.20;99.90
31695;DHT22;18289;51.330;4.946;2024-01-15T15:14:17;2.10;99.90
31695;DHT22;18289;51.330;4.946;2024-01-15T15:16:43;2.10;99.90
31695;DHT22;18289;51.330;4.946;2024-01-15T15:19:09;2.00;99.90
31695;DHT22;18289;51.330;4.946;2024-01-15T15:21:34;2.00;99.90
31695;DHT22;18289;51.330;4.946;2024-01-15T15:24:00;1.90;99.90
31695;DHT22;18289;51.330;4.946;2024-01-15T15:26:27;1.70;99.90
31695;DHT22;18289;51.330;4.946;2024-01-15T15:28:53;1.60;99.90
31695;DHT22;18289;51.330;4.946;2024-01-15T15:31:19;1.70;99.90
31695;DHT22;18289;51.330;4.946;2024-01-15T15:33:45;1.60;99.90
31695;DHT22;18289;51.330;4.946;2024-01-15T15:36:11;1.70;99.90
31695;DHT22;18289;51.330;4.946;2024-01-15T15:38:37;1.70;99.90
31695;DHT22;18289;51.330;4.946;2024-01-15T15:41:03;1.70;99.90
31695;DHT22;18289;51.330;4.946;2024-01-15T15:43:29;1.60;99.90
31695;DHT22;18289;51.330;4.946;2024-01-15T15:45:56;1.50;99.90
31695;DHT22;18289;51.330;4.946;2024-01-15T15:48:23;1.50;99.90
31695;DHT22;18289;51.330;4.946;2024-01-15T15:50:50;1.40;99.90
31695;DHT22;18289;51.330;4.946;2024-01-15T15:53:16;1.50;99.90